Szczecin, Poland
Current Conditions -  °F | °C
As of 6:30 AM on Friday 31 Oct 2014 (Local Time) from EPSC Reporting Station
Moderate Fog Moderate Fog  
Wind Chill: 36°   Ceiling: 100
Heat Index: 39°   Visibility: 0.25mi
Dew Point: 39°   Wind: 5mph
Humidity: 100%   Direction: 170°S
Pressure: 30.3"   Gusts: NA
Location:  53.43°N, 14.53°E
Report Text: EPSC 310430Z 17004KT 0400 R31/0800 FG VV001 04/04 Q1026
Loading
Personal Weather Stations






























Interactive Weather Map
Tropical Storm Tracking
New forecast layout! Learn more

10-Day Weather Forecast

Advertisements
Track Severe Weather on mobile